Palmer, PR (00721)

9:42 PM AST on May 05, 2015 (GMT -0400)
Fajardo PR Weather Cafe | | Change Station
CLOSE
Current Station
Personal Weather Station
Location: Fajardo, FAJARDO
Elevation: 144 ft
Nearby Weather Stations

Elev 144 ft 18.32 °N, 65.66 °W | Updated 27 seconds ago

Mostly Cloudy
Mostly Cloudy
85.2 °F
Feels Like 89 °F
N
4.0
Wind Variable Wind from NE
Gusts 5.0 mph

Today
High -- | Low -- °F
--% Chance of Precip.
Yesterday
High -- | Low -- °F
Precip. -- in
5:53 AM 6:45 PM
Waning Gibbous, 96% visible
Pressure 30.11 in
Visibility 10.0 miles
Clouds Mostly Cloudy 2800 ft
Mostly Cloudy 3800 ft
Heat Index 89 °F
Dew Point 69 °F
Humidity 58%
Rainfall 0.00 in
Snow Depth Not available.
UV 0 out of 12
Pollen Not available.
Air Quality Not available.
Flu Activity Local Activity
SPECI TJNR 060139Z AUTO 06006KT 10SM BKN028 BKN038 27/21 A3011 RMK AO2 T02720211 $

More Conditions Fewer Conditions

Pressure 30.11 in
Visibility 10.0 miles
Clouds Mostly Cloudy 2800 ft
Mostly Cloudy 3800 ft
Heat Index 89 °F
Dew Point 69 °F
Humidity 58%
Rainfall 0.00 in
Snow Depth Not available.
UV 0 out of 12
Pollen Not available.
Air Quality Not available.
Flu Activity Local Activity
SPECI TJNR 060139Z AUTO 06006KT 10SM BKN028 BKN038 27/21 A3011 RMK AO2 T02720211 $

More Conditions Fewer Conditions

10-Day Weather Forecast

Almanac

Astronomy

May. 05, 2015 Rise Set
Actual Time
Civil Twilight
Nautical Twilight
Astronomical Twilight
Moon
Length of Visible Light
Length of Day
Tomorrow will be .
, % of the Moon is Illuminated

Today's Extremes

State Highs State Lows

Community

WunderPhotos

Upload Photos

1,819,036 photos uploaded!

WunderBlogs® & News

Nearby

Air Quality

  Air Quality AQ Index Pollutant
Not available.

Snow Depth

Station Depth Elevation

Earthquake Activity

City Distance Mag. Time & Date
Minimum magnitude displayed is 2.5.

Coastal Water Temperatures

Place Temperature

Stations

Nearby Weather Stations

Station Location Temp. Windchill Dew Point Humidity Wind Precip. Elev Updated Type